Time;durP1;ratioP1;P1;durP2;ratioP2;P2;SDS_P1;SDS_P2;PMS_P1;PMS_P2;Temp;Humidity;BMP_temperature;BMP_pressure;BME280_temperature;BME280_humidity;BME280_pressure;Samples;Min_cycle;Max_cycle;Signal;HPM_P1;HPM_P2
2022/07/16 00:01:24;;;;;;;;;15.00;15.00;;;;;;;;5262654;28;8820;-78
2022/07/16 00:04:00;;;;;;;;;14.75;14.75;;;;;;;;5246712;28;8787;-77
2022/07/16 00:06:31;;;;;;;;;14.00;14.00;;;;;;;;5262897;28;8783;-78
2022/07/16 00:09:02;;;;;;;;;13.75;13.75;;;;;;;;5244993;28;8807;-78
2022/07/16 00:11:33;;;;;;;;;15.50;15.50;;;;;;;;5228927;28;8794;-76
2022/07/16 00:14:22;;;;;;;;;13.50;13.50;;;;;;;;5262042;28;8856;-75
2022/07/16 00:16:53;;;;;;;;;16.00;15.00;;;;;;;;5229125;28;9515;-75
2022/07/16 00:19:24;;;;;;;;;14.00;14.00;;;;;;;;5228482;28;9521;-76
2022/07/16 00:21:55;;;;;;;;;13.67;13.67;;;;;;;;5246590;28;8822;-77
2022/07/16 00:24:27;;;;;;;;;14.75;14.75;;;;;;;;5248667;28;11539;-79
2022/07/16 00:26:58;;;;;;;;;15.50;15.50;;;;;;;;5233857;28;8797;-78
2022/07/16 00:29:29;;;;;;;;;16.25;16.25;;;;;;;;5265739;28;8799;-79
2022/07/16 00:32:00;;;;;;;;;13.75;13.75;;;;;;;;5250504;28;8808;-78
2022/07/16 00:34:32;;;;;;;;;16.00;16.00;;;;;;;;5250957;28;9499;-79
2022/07/16 00:37:03;;;;;;;;;15.00;15.00;;;;;;;;5247358;28;8822;-78
2022/07/16 00:39:35;;;;;;;;;21.50;21.50;;;;;;;;5229861;28;8790;-79
2022/07/16 00:42:07;;;;;;;;;32.00;30.80;;;;;;;;5247978;28;8838;-80
2022/07/16 00:44:39;;;;;;;;;33.00;31.40;;;;;;;;5248147;28;8795;-80
2022/07/16 00:47:10;;;;;;;;;19.75;17.25;;;;;;;;5228343;28;8807;-78
2022/07/16 00:49:41;;;;;;;;;16.33;16.33;;;;;;;;5228385;28;8783;-78
2022/07/16 00:52:12;;;;;;;;;15.00;15.00;;;;;;;;5254821;28;11521;-76
2022/07/16 00:54:43;;;;;;;;;18.25;18.25;;;;;;;;5266342;28;8785;-76
2022/07/16 00:57:14;;;;;;;;;18.50;18.50;;;;;;;;5259752;28;8799;-77
2022/07/16 00:59:45;;;;;;;;;13.25;13.25;;;;;;;;5228712;28;8783;-77
2022/07/16 01:02:35;;;;;;;;;7.00;7.00;;;;;;;;5245218;28;8803;-76
2022/07/16 01:05:07;;;;;;;;;11.00;10.00;;;;;;;;5246265;28;8787;-75
2022/07/16 01:07:38;;;;;;;;;11.75;11.75;;;;;;;;5228477;28;9530;-77
2022/07/16 01:10:09;;;;;;;;;11.75;11.75;;;;;;;;5245200;28;8760;-78
2022/07/16 01:12:41;;;;;;;;;45.00;37.80;;;;;;;;5256346;28;8930;-75
2022/07/16 01:15:12;;;;;;;;;24.00;24.00;;;;;;;;5248642;28;8849;-75
2022/07/16 01:18:01;;;;;;;;;16.00;16.00;;;;;;;;5244064;28;8807;-75
2022/07/16 01:20:32;;;;;;;;;11.25;11.25;;;;;;;;5228145;28;8768;-75
2022/07/16 01:23:04;;;;;;;;;11.25;11.25;;;;;;;;5244472;28;8822;-75
2022/07/16 01:25:35;;;;;;;;;10.75;10.75;;;;;;;;5255381;28;8815;-75
2022/07/16 01:28:06;;;;;;;;;9.00;9.00;;;;;;;;5248631;28;8797;-75
2022/07/16 01:30:56;;;;;;;;;10.75;10.75;;;;;;;;5266992;28;8923;-76
2022/07/16 01:33:29;;;;;;;;;12.00;12.00;;;;;;;;5230012;28;8819;-72
2022/07/16 01:36:18;;;;;;;;;12.25;12.25;;;;;;;;5248830;28;8845;-73
2022/07/16 01:38:49;;;;;;;;;11.50;11.50;;;;;;;;5246526;28;8797;-75
2022/07/16 01:41:20;;;;;;;;;9.50;9.50;;;;;;;;5231741;28;8937;-77
2022/07/16 01:43:51;;;;;;;;;9.25;9.25;;;;;;;;5231394;28;8795;-77
2022/07/16 01:46:23;;;;;;;;;11.25;11.25;;;;;;;;5248291;28;9536;-78
2022/07/16 01:48:54;;;;;;;;;9.75;9.75;;;;;;;;5248207;28;8801;-79
2022/07/16 01:51:25;;;;;;;;;9.00;9.00;;;;;;;;5248177;28;8795;-78
2022/07/16 01:53:56;;;;;;;;;7.50;7.50;;;;;;;;5268395;28;9534;-78
2022/07/16 01:56:45;;;;;;;;;10.25;10.25;;;;;;;;5266179;28;8838;-82
2022/07/16 01:59:16;;;;;;;;;9.50;9.50;;;;;;;;5247744;28;8779;-77
2022/07/16 02:01:47;;;;;;;;;11.75;11.75;;;;;;;;5247949;28;9570;-77
2022/07/16 02:04:37;;;;;;;;;9.00;9.00;;;;;;;;5233636;28;8803;-78
2022/07/16 02:07:08;;;;;;;;;12.00;11.00;;;;;;;;5214428;28;8783;-77
2022/07/16 02:09:39;;;;;;;;;11.00;10.00;;;;;;;;5253139;28;8877;-80
2022/07/16 02:12:10;;;;;;;;;11.50;11.50;;;;;;;;5235676;28;9523;-84
2022/07/16 02:14:41;;;;;;;;;9.75;9.75;;;;;;;;5268755;28;8792;-84
2022/07/16 02:17:12;;;;;;;;;8.75;8.50;;;;;;;;5262090;28;8810;-78
2022/07/16 02:19:43;;;;;;;;;10.00;10.00;;;;;;;;5248444;28;8783;-82
2022/07/16 02:22:15;;;;;;;;;17.00;17.00;;;;;;;;5248047;28;9744;-80
2022/07/16 02:24:46;;;;;;;;;15.25;15.00;;;;;;;;5247396;28;8980;-79
2022/07/16 02:27:17;;;;;;;;;13.75;13.75;;;;;;;;5230619;28;8917;-80
2022/07/16 02:29:48;;;;;;;;;11.00;11.00;;;;;;;;5248238;28;8827;-82
2022/07/16 02:32:19;;;;;;;;;10.25;10.25;;;;;;;;5230678;28;8829;-78
2022/07/16 02:34:51;;;;;;;;;9.50;9.50;;;;;;;;5214018;28;8996;-78
2022/07/16 02:37:22;;;;;;;;;10.00;10.00;;;;;;;;5214035;28;8829;-81
2022/07/16 02:39:54;;;;;;;;;58.40;47.20;;;;;;;;5230532;28;8783;-76
2022/07/16 02:42:25;;;;;;;;;17.50;14.75;;;;;;;;5222177;28;9628;-79
2022/07/16 02:44:56;;;;;;;;;8.75;8.75;;;;;;;;5258260;28;8825;-78
2022/07/16 02:47:27;;;;;;;;;9.00;9.00;;;;;;;;5246890;28;9553;-79
2022/07/16 02:49:59;;;;;;;;;12.50;12.50;;;;;;;;5241491;28;9483;-77
2022/07/16 02:52:30;;;;;;;;;18.75;18.75;;;;;;;;5250888;28;8816;-77
2022/07/16 02:55:03;;;;;;;;;11.00;11.00;;;;;;;;5260369;28;8827;-78
2022/07/16 02:57:34;;;;;;;;;10.25;10.25;;;;;;;;5260607;28;8785;-78
2022/07/16 03:00:25;;;;;;;;;6.75;6.75;;;;;;;;5250501;28;8807;-77
2022/07/16 03:03:14;;;;;;;;;11.50;11.50;;;;;;;;5247647;28;8799;-77
2022/07/16 03:05:45;;;;;;;;;7.25;7.25;;;;;;;;5247344;28;8793;-77
2022/07/16 03:08:16;;;;;;;;;11.33;11.33;;;;;;;;5230095;28;8780;-79
2022/07/16 03:11:06;;;;;;;;;14.00;14.00;;;;;;;;5246847;28;8992;-76
2022/07/16 03:13:37;;;;;;;;;13.00;13.00;;;;;;;;5229542;28;8859;-76
2022/07/16 03:16:26;;;;;;;;;12.75;12.75;;;;;;;;5246518;28;8917;-78
2022/07/16 03:18:57;;;;;;;;;11.50;11.50;;;;;;;;5229972;28;8775;-75
2022/07/16 03:21:28;;;;;;;;;12.50;12.25;;;;;;;;5246714;28;8787;-77
2022/07/16 03:23:59;;;;;;;;;12.00;12.00;;;;;;;;5246075;28;10393;-77
2022/07/16 03:26:30;;;;;;;;;11.50;11.50;;;;;;;;5223866;28;8796;-77
2022/07/16 03:29:20;;;;;;;;;14.00;14.00;;;;;;;;5254986;28;8813;-77
2022/07/16 03:32:10;;;;;;;;;11.00;11.00;;;;;;;;5258193;28;8804;-76
2022/07/16 03:34:59;;;;;;;;;11.75;11.75;;;;;;;;5275385;28;8899;-79
2022/07/16 03:37:30;;;;;;;;;12.25;12.25;;;;;;;;5272686;28;8812;-76
2022/07/16 03:40:01;;;;;;;;;14.25;14.25;;;;;;;;5250847;28;8760;-79
2022/07/16 03:42:33;;;;;;;;;12.50;12.50;;;;;;;;5228797;28;9565;-78
2022/07/16 03:45:04;;;;;;;;;12.25;11.25;;;;;;;;5230681;28;8868;-82
2022/07/16 03:47:35;;;;;;;;;12.00;12.00;;;;;;;;5247208;28;8917;-80
2022/07/16 03:50:07;;;;;;;;;14.00;14.00;;;;;;;;5223733;28;9023;-80
2022/07/16 03:52:38;;;;;;;;;10.00;10.00;;;;;;;;5245051;28;8799;-80
2022/07/16 03:55:09;;;;;;;;;12.50;12.25;;;;;;;;5245424;28;8803;-79
2022/07/16 03:57:42;;;;;;;;;6.75;6.50;;;;;;;;5245569;28;8788;-81
2022/07/16 04:00:13;;;;;;;;;15.25;14.75;;;;;;;;5231386;28;8791;-81
2022/07/16 04:02:45;;;;;;;;;10.75;10.75;;;;;;;;5264949;28;8834;-81
2022/07/16 04:05:16;;;;;;;;;11.25;11.25;;;;;;;;5256172;28;8803;-78
2022/07/16 04:07:47;;;;;;;;;13.50;13.50;;;;;;;;5245458;28;8783;-85
2022/07/16 04:10:18;;;;;;;;;9.75;9.75;;;;;;;;5263155;28;8784;-80
2022/07/16 04:12:49;;;;;;;;;12.67;12.67;;;;;;;;5228157;28;9663;-75
2022/07/16 04:15:20;;;;;;;;;8.50;8.50;;;;;;;;5245109;28;11495;-74
2022/07/16 04:17:51;;;;;;;;;9.75;9.75;;;;;;;;5229075;28;8825;-75
2022/07/16 04:20:22;;;;;;;;;9.25;9.25;;;;;;;;5245298;28;8953;-76
2022/07/16 04:22:53;;;;;;;;;10.25;10.25;;;;;;;;5232246;28;8945;-78
2022/07/16 04:25:24;;;;;;;;;11.25;10.75;;;;;;;;5228555;28;8799;-79
2022/07/16 04:27:55;;;;;;;;;9.00;9.00;;;;;;;;5228640;28;8790;-75
2022/07/16 04:30:26;;;;;;;;;12.00;12.00;;;;;;;;5225209;28;8811;-77
2022/07/16 04:33:16;;;;;;;;;10.00;10.00;;;;;;;;5230890;28;8814;-81
2022/07/16 04:36:05;;;;;;;;;11.00;11.00;;;;;;;;5245117;28;8775;-78
2022/07/16 04:38:36;;;;;;;;;12.75;12.75;;;;;;;;5261722;28;8810;-81
2022/07/16 04:41:26;;;;;;;;;10.00;10.00;;;;;;;;5244811;28;8847;-81
2022/07/16 04:43:57;;;;;;;;;9.75;9.75;;;;;;;;5264927;28;8809;-80
2022/07/16 04:46:28;;;;;;;;;14.00;14.00;;;;;;;;5266847;28;9586;-79
2022/07/16 04:48:59;;;;;;;;;13.25;13.25;;;;;;;;5242931;28;8791;-75
2022/07/16 04:51:31;;;;;;;;;13.00;13.00;;;;;;;;5227861;28;8768;-76
2022/07/16 04:54:02;;;;;;;;;15.25;15.25;;;;;;;;5228258;28;8825;-77
2022/07/16 04:56:36;;;;;;;;;14.25;14.25;;;;;;;;5244730;28;8791;-76
2022/07/16 04:59:07;;;;;;;;;15.50;15.25;;;;;;;;5245516;28;8791;-75
2022/07/16 05:01:38;;;;;;;;;10.75;10.75;;;;;;;;5244540;28;8799;-76
2022/07/16 05:04:09;;;;;;;;;17.50;17.50;;;;;;;;5227766;28;8783;-75
2022/07/16 05:06:40;;;;;;;;;11.50;11.50;;;;;;;;5265361;28;8779;-77
2022/07/16 05:09:11;;;;;;;;;12.00;12.00;;;;;;;;5265525;28;8815;-76
2022/07/16 05:11:42;;;;;;;;;17.75;17.50;;;;;;;;5236706;28;8807;-76
2022/07/16 05:14:13;;;;;;;;;12.00;12.00;;;;;;;;5248545;28;9598;-78
2022/07/16 05:16:44;;;;;;;;;11.25;11.25;;;;;;;;5247320;28;8779;-70
2022/07/16 05:19:16;;;;;;;;;12.50;12.50;;;;;;;;5231808;28;8907;-71
2022/07/16 05:21:47;;;;;;;;;13.25;13.25;;;;;;;;5249327;28;8859;-72
2022/07/16 05:24:18;;;;;;;;;11.50;11.50;;;;;;;;5257945;28;8780;-72
2022/07/16 05:26:49;;;;;;;;;13.00;13.00;;;;;;;;5253526;28;8860;-71
2022/07/16 05:29:20;;;;;;;;;13.75;13.75;;;;;;;;5255882;28;8772;-72
2022/07/16 05:31:51;;;;;;;;;12.25;12.25;;;;;;;;5242191;28;8826;-73
2022/07/16 05:34:22;;;;;;;;;12.75;12.75;;;;;;;;5231526;28;8904;-73
2022/07/16 05:36:54;;;;;;;;;9.50;9.50;;;;;;;;5249251;28;8791;-72
2022/07/16 05:39:46;;;;;;;;;15.25;15.25;;;;;;;;5248817;28;9486;-72
2022/07/16 05:42:17;;;;;;;;;13.00;13.00;;;;;;;;5249149;28;8802;-72
2022/07/16 05:45:07;;;;;;;;;14.50;14.50;;;;;;;;5248025;28;8811;-72
2022/07/16 05:47:56;;;;;;;;;14.75;14.75;;;;;;;;5234447;28;8929;-72
2022/07/16 05:50:27;;;;;;;;;16.75;16.75;;;;;;;;5231069;28;8787;-73
2022/07/16 05:52:59;;;;;;;;;14.00;14.00;;;;;;;;5247867;28;8803;-72
2022/07/16 05:55:31;;;;;;;;;14.00;14.00;;;;;;;;5231180;28;8831;-72
2022/07/16 05:58:02;;;;;;;;;14.00;14.00;;;;;;;;5247767;28;8779;-72
2022/07/16 06:00:33;;;;;;;;;16.25;16.25;;;;;;;;5231074;28;8795;-72
2022/07/16 06:03:04;;;;;;;;;15.50;15.50;;;;;;;;5230973;28;8814;-72
2022/07/16 06:05:35;;;;;;;;;9.50;9.50;;;;;;;;5247576;28;8787;-72
2022/07/16 06:08:07;;;;;;;;;12.00;12.00;;;;;;;;5230904;28;8833;-72
2022/07/16 06:10:38;;;;;;;;;12.75;12.75;;;;;;;;5247289;28;8795;-72
2022/07/16 06:13:10;;;;;;;;;13.75;13.75;;;;;;;;5247340;28;8802;-72
2022/07/16 06:15:41;;;;;;;;;13.50;13.50;;;;;;;;5246762;28;8888;-73
2022/07/16 06:18:12;;;;;;;;;13.25;13.25;;;;;;;;5230602;28;8791;-72
2022/07/16 06:20:43;;;;;;;;;15.50;15.50;;;;;;;;5230635;28;8802;-72
2022/07/16 06:23:14;;;;;;;;;15.50;15.50;;;;;;;;5213813;28;8827;-73
2022/07/16 06:25:46;;;;;;;;;14.50;14.50;;;;;;;;5246956;28;8787;-73
2022/07/16 06:28:17;;;;;;;;;14.50;14.50;;;;;;;;5230549;28;9564;-72
2022/07/16 06:30:48;;;;;;;;;15.75;15.75;;;;;;;;5247020;28;8782;-73
2022/07/16 06:33:19;;;;;;;;;13.00;13.00;;;;;;;;5246769;28;8876;-73
2022/07/16 06:35:50;;;;;;;;;16.25;16.25;;;;;;;;5246834;28;8805;-73
2022/07/16 06:38:21;;;;;;;;;16.75;16.75;;;;;;;;5230609;28;8875;-73
2022/07/16 06:40:52;;;;;;;;;15.50;15.50;;;;;;;;5230169;28;8791;-73
2022/07/16 06:43:23;;;;;;;;;18.50;18.50;;;;;;;;5229908;28;8815;-73
2022/07/16 06:45:54;;;;;;;;;17.00;17.00;;;;;;;;5246307;28;8764;-73
2022/07/16 06:48:25;;;;;;;;;15.00;15.00;;;;;;;;5246599;28;8779;-73
2022/07/16 06:50:56;;;;;;;;;14.50;14.50;;;;;;;;5230330;28;8767;-73
2022/07/16 06:53:27;;;;;;;;;15.25;15.00;;;;;;;;5246536;28;8917;-73
2022/07/16 06:56:00;;;;;;;;;15.00;15.00;;;;;;;;5213466;28;8759;-73
2022/07/16 06:58:32;;;;;;;;;16.25;16.25;;;;;;;;5229726;28;8925;-73
2022/07/16 07:01:03;;;;;;;;;17.00;17.00;;;;;;;;5229811;28;8779;-73
2022/07/16 07:03:34;;;;;;;;;15.25;15.25;;;;;;;;5246305;28;8826;-73
2022/07/16 07:06:05;;;;;;;;;16.50;16.50;;;;;;;;5247370;28;8785;-72
2022/07/16 07:08:36;;;;;;;;;15.00;15.00;;;;;;;;5247467;28;8837;-74
2022/07/16 07:11:08;;;;;;;;;20.25;20.25;;;;;;;;5246265;28;8782;-73
2022/07/16 07:13:57;;;;;;;;;17.00;17.00;;;;;;;;5246511;28;8771;-74
2022/07/16 07:16:28;;;;;;;;;16.67;16.33;;;;;;;;5247293;28;8821;-74
2022/07/16 07:18:58;;;;;;;;;15.00;15.00;;;;;;;;5229430;28;11175;-73
2022/07/16 07:21:29;;;;;;;;;17.67;17.67;;;;;;;;5246884;28;8914;-73
2022/07/16 07:24:00;;;;;;;;;20.00;20.00;;;;;;;;5245989;28;12220;-73
2022/07/16 07:26:33;;;;;;;;;18.25;18.25;;;;;;;;5246688;28;8837;-73
2022/07/16 07:29:04;;;;;;;;;13.75;13.75;;;;;;;;5245671;28;9633;-73
2022/07/16 07:31:35;;;;;;;;;18.50;18.50;;;;;;;;5245577;28;8771;-73
2022/07/16 07:34:06;;;;;;;;;16.75;16.75;;;;;;;;5246004;28;8771;-73
2022/07/16 07:36:36;;;;;;;;;15.50;15.50;;;;;;;;5245772;28;8775;-73
2022/07/16 07:39:07;;;;;;;;;19.00;19.00;;;;;;;;5228966;28;8872;-73
2022/07/16 07:41:39;;;;;;;;;15.25;15.25;;;;;;;;5245558;28;9141;-73
2022/07/16 07:44:10;;;;;;;;;19.75;19.75;;;;;;;;5245801;28;9537;-73
2022/07/16 07:46:41;;;;;;;;;17.25;17.25;;;;;;;;5245211;28;8795;-73
2022/07/16 07:49:12;;;;;;;;;17.00;17.00;;;;;;;;5228871;28;9524;-73
2022/07/16 07:51:43;;;;;;;;;16.33;16.33;;;;;;;;5245304;28;8845;-73
2022/07/16 07:54:14;;;;;;;;;16.50;16.50;;;;;;;;5246704;28;9489;-73
2022/07/16 07:57:04;;;;;;;;;16.75;16.75;;;;;;;;5231712;28;8783;-74
2022/07/16 07:59:35;;;;;;;;;15.00;15.00;;;;;;;;5228823;28;8922;-73
2022/07/16 08:02:25;;;;;;;;;16.25;16.25;;;;;;;;5231168;28;8830;-72
2022/07/16 08:04:56;;;;;;;;;16.25;16.00;;;;;;;;5228682;28;9575;-75
2022/07/16 08:07:27;;;;;;;;;14.25;14.25;;;;;;;;5228379;28;8794;-72
2022/07/16 08:09:58;;;;;;;;;12.75;12.75;;;;;;;;5229161;28;8791;-72
2022/07/16 08:12:29;;;;;;;;;19.00;19.00;;;;;;;;5246445;28;8795;-72
2022/07/16 08:15:00;;;;;;;;;14.75;14.75;;;;;;;;5228760;28;8799;-72
2022/07/16 08:17:31;;;;;;;;;15.75;15.75;;;;;;;;5228391;28;8802;-71
2022/07/16 08:20:03;;;;;;;;;20.00;20.00;;;;;;;;5245041;28;8823;-72
2022/07/16 08:22:34;;;;;;;;;19.25;19.25;;;;;;;;5244718;28;8829;-73
2022/07/16 08:28:02;;;;;;;;;14.50;14.50;;;;;;;;5228167;28;8799;-73
2022/07/16 08:30:33;;;;;;;;;12.25;12.25;;;;;;;;5245057;28;8775;-73
2022/07/16 08:33:22;;;;;;;;;16.00;16.00;;;;;;;;5230802;28;8807;-73
2022/07/16 08:35:52;;;;;;;;;10.75;10.75;;;;;;;;5228495;28;8795;-73
2022/07/16 08:38:23;;;;;;;;;9.67;9.67;;;;;;;;5229195;28;8767;-73
2022/07/16 08:41:14;;;;;;;;;10.75;10.75;;;;;;;;5249839;28;8787;-73
2022/07/16 08:43:45;;;;;;;;;9.75;9.75;;;;;;;;5250260;28;8861;-73
2022/07/16 08:46:19;;;;;;;;;15.25;15.25;;;;;;;;5232504;28;8767;-72
2022/07/16 08:48:51;;;;;;;;;11.25;11.25;;;;;;;;5232066;28;8783;-72
2022/07/16 08:51:33;;;;;;;;;13.50;13.50;;;;;;;;5232715;28;9532;-73
2022/07/16 08:54:06;;;;;;;;;12.25;12.00;;;;;;;;5249165;28;8775;-73
2022/07/16 08:56:38;;;;;;;;;9.00;9.00;;;;;;;;5248697;28;8743;-73
2022/07/16 08:59:09;;;;;;;;;10.00;10.00;;;;;;;;5232134;28;8837;-73
2022/07/16 09:01:40;;;;;;;;;9.00;9.00;;;;;;;;5232210;28;8914;-73
2022/07/16 09:04:11;;;;;;;;;11.75;11.75;;;;;;;;5248775;28;8755;-73
2022/07/16 09:07:00;;;;;;;;;8.50;8.50;;;;;;;;5250151;28;8864;-72
2022/07/16 09:09:31;;;;;;;;;9.00;9.00;;;;;;;;5248719;28;8755;-73
2022/07/16 09:12:02;;;;;;;;;10.67;10.67;;;;;;;;5248522;28;8793;-73
2022/07/16 09:14:33;;;;;;;;;9.75;9.75;;;;;;;;5248325;28;11450;-72
2022/07/16 09:17:03;;;;;;;;;10.00;10.00;;;;;;;;5232011;28;8802;-72
2022/07/16 09:19:35;;;;;;;;;18.50;18.50;;;;;;;;5248226;28;8771;-72
2022/07/16 09:22:11;;;;;;;;;14.00;14.00;;;;;;;;5248169;28;9672;-73
2022/07/16 09:24:42;;;;;;;;;12.50;12.50;;;;;;;;5250129;28;8795;-73
2022/07/16 09:27:14;;;;;;;;;7.25;7.25;;;;;;;;5249610;28;8771;-73
2022/07/16 09:30:04;;;;;;;;;7.00;7.00;;;;;;;;5249588;28;8853;-73
2022/07/16 09:32:36;;;;;;;;;8.00;8.00;;;;;;;;5231343;28;8795;-73
2022/07/16 09:35:11;;;;;;;;;8.25;8.25;;;;;;;;5231637;28;9000;-72
2022/07/16 09:37:48;;;;;;;;;9.50;9.50;;;;;;;;5249429;28;8933;-72
2022/07/16 09:40:30;;;;;;;;;9.00;9.00;;;;;;;;5248147;28;8844;-73
2022/07/16 09:43:01;;;;;;;;;18.00;17.50;;;;;;;;5247745;28;8814;-72
2022/07/16 09:45:33;;;;;;;;;10.25;10.25;;;;;;;;5231205;28;8771;-72
2022/07/16 09:48:17;;;;;;;;;9.00;9.00;;;;;;;;5248121;28;8813;-73
2022/07/16 09:51:12;;;;;;;;;10.50;10.50;;;;;;;;5247175;28;8779;-72
2022/07/16 09:53:46;;;;;;;;;10.25;10.25;;;;;;;;5248258;28;8894;-72
2022/07/16 09:56:18;;;;;;;;;8.75;8.75;;;;;;;;5231406;28;9482;-72
2022/07/16 09:58:51;;;;;;;;;8.00;8.00;;;;;;;;5248797;28;8776;-72
2022/07/16 10:01:22;;;;;;;;;12.50;12.50;;;;;;;;5247625;28;8872;-72
2022/07/16 10:03:53;;;;;;;;;9.75;9.75;;;;;;;;5248664;28;8791;-72
2022/07/16 10:06:26;;;;;;;;;11.00;11.00;;;;;;;;5246794;28;8898;-72
2022/07/16 10:08:57;;;;;;;;;8.75;8.75;;;;;;;;5247451;28;8856;-73
2022/07/16 10:11:28;;;;;;;;;10.00;10.00;;;;;;;;5248621;28;9521;-72
2022/07/16 10:13:59;;;;;;;;;8.25;8.25;;;;;;;;5230819;28;11407;-72
2022/07/16 10:16:48;;;;;;;;;18.50;18.50;;;;;;;;5247352;28;8905;-72
2022/07/16 10:19:22;;;;;;;;;17.00;17.00;;;;;;;;5230630;28;8775;-73
2022/07/16 10:22:11;;;;;;;;;14.50;14.50;;;;;;;;5247077;28;8787;-73
2022/07/16 10:24:43;;;;;;;;;7.00;7.00;;;;;;;;5230444;28;8803;-72
2022/07/16 10:27:24;;;;;;;;;16.25;15.25;;;;;;;;5230650;28;8791;-73
2022/07/16 10:30:12;;;;;;;;;8.75;8.75;;;;;;;;5248363;28;8779;-72
2022/07/16 10:33:12;;;;;;;;;17.00;17.00;;;;;;;;5248088;28;8779;-73
2022/07/16 10:35:46;;;;;;;;;6.00;6.00;;;;;;;;5247433;28;8791;-72
2022/07/16 10:38:18;;;;;;;;;8.50;8.50;;;;;;;;5230716;28;8779;-72
2022/07/16 10:41:07;;;;;;;;;3.25;3.25;;;;;;;;5247219;28;9571;-72
2022/07/16 10:44:10;;;;;;;;;9.50;9.50;;;;;;;;5232496;28;8830;-72
2022/07/16 10:47:01;;;;;;;;;7.00;7.00;;;;;;;;5247193;28;8790;-72
2022/07/16 10:49:32;;;;;;;;;8.75;8.75;;;;;;;;5247888;28;8803;-72
2022/07/16 10:52:39;;;;;;;;;6.75;6.75;;;;;;;;5248094;28;8826;-72
2022/07/16 10:55:10;;;;;;;;;8.00;8.00;;;;;;;;5229809;28;8787;-72
2022/07/16 10:58:00;;;;;;;;;7.00;7.00;;;;;;;;5246346;28;9537;-72
2022/07/16 11:00:31;;;;;;;;;6.50;6.50;;;;;;;;5246545;28;8917;-72
2022/07/16 11:03:04;;;;;;;;;6.50;6.50;;;;;;;;5228525;28;8835;-72
2022/07/16 11:05:35;;;;;;;;;8.00;8.00;;;;;;;;5246744;28;9606;-73
2022/07/16 11:08:07;;;;;;;;;4.50;4.50;;;;;;;;5227134;28;8796;-73
2022/07/16 11:10:57;;;;;;;;;6.25;6.25;;;;;;;;5235192;28;8964;-72
2022/07/16 11:13:28;;;;;;;;;7.00;7.00;;;;;;;;5227872;28;8924;-73
2022/07/16 11:16:08;;;;;;;;;6.33;6.33;;;;;;;;5236925;28;8934;-74
2022/07/16 11:18:39;;;;;;;;;10.00;10.00;;;;;;;;5270174;28;8783;-72
2022/07/16 11:21:10;;;;;;;;;11.50;11.50;;;;;;;;5254804;28;8918;-73
2022/07/16 11:23:50;;;;;;;;;8.00;8.00;;;;;;;;5253868;28;8888;-72
2022/07/16 11:26:40;;;;;;;;;5.25;5.25;;;;;;;;5251781;28;8794;-73
2022/07/16 11:29:10;;;;;;;;;9.75;9.75;;;;;;;;5245799;28;8860;-73
2022/07/16 11:31:41;;;;;;;;;6.00;6.00;;;;;;;;5263553;28;8777;-73
2022/07/16 11:34:12;;;;;;;;;11.33;11.33;;;;;;;;5249898;28;10203;-74
2022/07/16 11:37:02;;;;;;;;;10.00;10.00;;;;;;;;5268019;28;9751;-73
2022/07/16 11:39:33;;;;;;;;;8.50;8.50;;;;;;;;5249502;28;8795;-73
2022/07/16 11:42:04;;;;;;;;;8.50;8.50;;;;;;;;5249623;28;8799;-73
2022/07/16 11:44:54;;;;;;;;;6.50;6.50;;;;;;;;5264922;28;9613;-73
2022/07/16 11:47:24;;;;;;;;;6.00;6.00;;;;;;;;5242517;28;8803;-73
2022/07/16 11:49:55;;;;;;;;;7.33;7.33;;;;;;;;5247185;28;8794;-73
2022/07/16 11:52:26;;;;;;;;;6.00;6.00;;;;;;;;5234163;28;11466;-73
2022/07/16 11:54:57;;;;;;;;;7.33;7.33;;;;;;;;5231713;28;9944;-73
2022/07/16 11:57:28;;;;;;;;;9.00;9.00;;;;;;;;5245009;28;11452;-73
2022/07/16 11:59:59;;;;;;;;;13.00;13.00;;;;;;;;5261965;28;10192;-72
2022/07/16 12:02:42;;;;;;;;;8.00;8.00;;;;;;;;5246200;28;8815;-73
2022/07/16 12:05:14;;;;;;;;;5.25;5.25;;;;;;;;5262121;28;11438;-72
2022/07/16 12:08:04;;;;;;;;;7.00;7.00;;;;;;;;5245333;28;8787;-72
2022/07/16 12:10:35;;;;;;;;;8.00;8.00;;;;;;;;5245000;28;8887;-73
2022/07/16 12:13:09;;;;;;;;;8.25;8.25;;;;;;;;5245427;28;8789;-72
2022/07/16 12:15:56;;;;;;;;;9.00;9.00;;;;;;;;5229002;28;8941;-73
2022/07/16 12:18:27;;;;;;;;;8.00;8.00;;;;;;;;5245034;28;8929;-75
2022/07/16 12:21:17;;;;;;;;;7.25;7.25;;;;;;;;5246067;28;8918;-74
2022/07/16 12:23:50;;;;;;;;;8.50;7.50;;;;;;;;5229368;28;8830;-74
2022/07/16 12:26:28;;;;;;;;;6.33;6.33;;;;;;;;5244851;28;8794;-75
2022/07/16 12:29:00;;;;;;;;;4.25;4.25;;;;;;;;5241179;28;12103;-75
2022/07/16 12:31:31;;;;;;;;;10.00;10.00;;;;;;;;5248806;28;8938;-74
2022/07/16 12:34:20;;;;;;;;;7.75;7.75;;;;;;;;5245152;28;8775;-72
2022/07/16 12:36:51;;;;;;;;;6.50;6.50;;;;;;;;5244963;28;8829;-74
2022/07/16 12:39:22;;;;;;;;;6.50;6.50;;;;;;;;5251660;28;8790;-73
2022/07/16 12:41:53;;;;;;;;;7.00;7.00;;;;;;;;5280664;28;8771;-73
2022/07/16 12:44:24;;;;;;;;;6.00;6.00;;;;;;;;5271779;28;9186;-72
2022/07/16 12:46:55;;;;;;;;;6.00;6.00;;;;;;;;5250823;28;10907;-72
2022/07/16 12:49:27;;;;;;;;;5.67;5.67;;;;;;;;5228086;28;11552;-74
2022/07/16 12:52:01;;;;;;;;;5.00;5.00;;;;;;;;5244597;28;8791;-73
2022/07/16 13:00:11;;;;;;;;;4.75;4.75;;;;;;;;5245710;28;8790;-73
2022/07/16 13:03:02;;;;;;;;;5.50;5.50;;;;;;;;5245348;28;8806;-72
2022/07/16 13:05:33;;;;;;;;;5.00;5.00;;;;;;;;5245394;28;8806;-73
2022/07/16 13:08:04;;;;;;;;;2.00;2.00;;;;;;;;5244472;28;8791;-73
2022/07/16 13:10:53;;;;;;;;;7.00;7.00;;;;;;;;5230497;28;8786;-72
2022/07/16 13:13:24;;;;;;;;;9.50;9.50;;;;;;;;5210930;28;9603;-72
2022/07/16 13:15:55;;;;;;;;;5.00;5.00;;;;;;;;5239976;28;8803;-73
2022/07/16 13:18:27;;;;;;;;;5.00;5.00;;;;;;;;5256976;28;8835;-72
2022/07/16 13:20:58;;;;;;;;;5.50;5.50;;;;;;;;5231666;28;10464;-73
2022/07/16 13:23:29;;;;;;;;;7.00;7.00;;;;;;;;5243858;28;8852;-73
2022/07/16 13:26:00;;;;;;;;;6.50;6.50;;;;;;;;5246220;28;8788;-73
2022/07/16 13:28:31;;;;;;;;;8.00;8.00;;;;;;;;5236924;28;8792;-74
2022/07/16 13:31:02;;;;;;;;;7.25;7.25;;;;;;;;5236048;28;8831;-72
2022/07/16 13:33:34;;;;;;;;;5.00;5.00;;;;;;;;5267420;28;8808;-72
2022/07/16 13:36:09;;;;;;;;;7.75;7.75;;;;;;;;5231842;28;11462;-72
2022/07/16 13:38:58;;;;;;;;;7.25;7.25;;;;;;;;5249745;28;8791;-72
2022/07/16 13:41:28;;;;;;;;;6.00;6.00;;;;;;;;5235842;28;8897;-72
2022/07/16 13:43:59;;;;;;;;;5.25;5.25;;;;;;;;5252300;28;8824;-72
2022/07/16 13:46:30;;;;;;;;;4.00;4.00;;;;;;;;5250881;28;8876;-71
2022/07/16 13:49:19;;;;;;;;;6.00;6.00;;;;;;;;5248214;28;11526;-71
2022/07/16 13:51:50;;;;;;;;;6.00;6.00;;;;;;;;5247624;28;8897;-71
2022/07/16 13:54:21;;;;;;;;;5.67;5.67;;;;;;;;5247914;28;11462;-72
2022/07/16 13:56:52;;;;;;;;;7.00;6.75;;;;;;;;5247757;28;11171;-72
2022/07/16 13:59:23;;;;;;;;;7.75;7.75;;;;;;;;5232796;28;8818;-72
2022/07/16 14:01:54;;;;;;;;;5.00;5.00;;;;;;;;5244479;28;8836;-71
2022/07/16 14:04:25;;;;;;;;;6.33;6.33;;;;;;;;5211189;28;8791;-71
2022/07/16 14:06:56;;;;;;;;;6.00;6.00;;;;;;;;5227310;28;8905;-72
2022/07/16 14:09:45;;;;;;;;;5.50;5.50;;;;;;;;5237834;28;9343;-72
2022/07/16 14:12:16;;;;;;;;;8.00;8.00;;;;;;;;5232005;28;9641;-72
2022/07/16 14:15:06;;;;;;;;;7.50;7.50;;;;;;;;5265302;28;10911;-72
2022/07/16 14:17:39;;;;;;;;;6.25;6.25;;;;;;;;5266056;28;8882;-71
2022/07/16 14:20:12;;;;;;;;;9.00;9.00;;;;;;;;5265394;28;8873;-72
2022/07/16 14:23:01;;;;;;;;;7.00;7.00;;;;;;;;5255142;28;8937;-72
2022/07/16 14:25:51;;;;;;;;;5.50;5.50;;;;;;;;5244632;28;8871;-71
2022/07/16 14:28:21;;;;;;;;;6.33;6.33;;;;;;;;5245549;28;8786;-71
2022/07/16 14:30:52;;;;;;;;;5.00;5.00;;;;;;;;5244275;28;9540;-72
2022/07/16 14:33:42;;;;;;;;;7.00;7.00;;;;;;;;5244099;28;8811;-71
2022/07/16 14:36:13;;;;;;;;;5.50;5.50;;;;;;;;5227298;28;8829;-72
2022/07/16 14:38:43;;;;;;;;;6.25;6.25;;;;;;;;5265991;28;8788;-72
2022/07/16 14:41:14;;;;;;;;;6.00;6.00;;;;;;;;5245705;28;8819;-72
2022/07/16 14:43:45;;;;;;;;;5.33;5.33;;;;;;;;5227997;28;10010;-72
2022/07/16 14:46:16;;;;;;;;;6.25;6.25;;;;;;;;5245234;28;9587;-72
2022/07/16 14:48:47;;;;;;;;;7.00;7.00;;;;;;;;5244932;28;8823;-71
2022/07/16 14:51:18;;;;;;;;;4.25;4.25;;;;;;;;5227903;28;8844;-72
2022/07/16 14:53:49;;;;;;;;;6.67;6.67;;;;;;;;5234871;28;8785;-71
2022/07/16 14:56:38;;;;;;;;;5.75;5.75;;;;;;;;5248247;28;11476;-71
2022/07/16 14:59:09;;;;;;;;;5.25;5.25;;;;;;;;5248084;28;8817;-70
2022/07/16 15:01:40;;;;;;;;;6.67;6.67;;;;;;;;5229284;28;8782;-72
2022/07/16 15:04:12;;;;;;;;;6.25;6.25;;;;;;;;5252285;28;11539;-73
2022/07/16 15:06:43;;;;;;;;;6.00;6.00;;;;;;;;5255831;28;8828;-71
2022/07/16 15:09:14;;;;;;;;;7.00;7.00;;;;;;;;5247076;28;8805;-71
2022/07/16 15:11:45;;;;;;;;;3.00;3.00;;;;;;;;5256926;28;10023;-71
2022/07/16 15:14:16;;;;;;;;;5.75;5.75;;;;;;;;5268108;28;8781;-71
2022/07/16 15:16:46;;;;;;;;;9.33;9.33;;;;;;;;5233575;28;8807;-71
2022/07/16 15:19:17;;;;;;;;;10.67;10.67;;;;;;;;5249968;28;11379;-72
2022/07/16 15:21:48;;;;;;;;;9.50;9.50;;;;;;;;5245944;28;10601;-72
2022/07/16 15:24:19;;;;;;;;;7.00;7.00;;;;;;;;5232309;28;9658;-72
2022/07/16 15:26:50;;;;;;;;;8.33;8.33;;;;;;;;5244563;28;9815;-71
2022/07/16 15:29:21;;;;;;;;;8.33;8.33;;;;;;;;5245352;28;11425;-71
2022/07/16 15:31:52;;;;;;;;;6.75;6.75;;;;;;;;5228404;28;9199;-71